Time;durP1;ratioP1;P1;durP2;ratioP2;P2;SDS_P1;SDS_P2;PMS_P1;PMS_P2;Temp;Humidity;BMP_temperature;BMP_pressure;BME280_temperature;BME280_humidity;BME280_pressure;Samples;Min_cycle;Max_cycle;Signal;HPM_P1;HPM_P2
2022/08/19 00:01:46;;;;;;;7.30;6.13;;;;;;;;;;5011515;28;20714;-72
2022/08/19 00:04:12;;;;;;;9.02;8.15;;;;;;;;;;5018343;28;20048;-71
2022/08/19 00:06:39;;;;;;;11.90;9.75;;;;;;;;;;5019230;28;20033;-73
2022/08/19 00:09:06;;;;;;;15.23;11.38;;;;;;;;;;5016581;28;20445;-72
2022/08/19 00:11:31;;;;;;;15.35;9.43;;;;;;;;;;5013252;28;20176;-72
2022/08/19 00:13:57;;;;;;;11.55;9.27;;;;;;;;;;5019643;28;20155;-71
2022/08/19 00:16:23;;;;;;;13.57;10.45;;;;;;;;;;5015021;28;20355;-74
2022/08/19 00:18:48;;;;;;;12.48;9.95;;;;;;;;;;5015318;28;20191;-73
2022/08/19 00:21:14;;;;;;;12.15;10.20;;;;;;;;;;5019002;28;20116;-70
2022/08/19 00:23:40;;;;;;;8.88;7.97;;;;;;;;;;5019802;28;20474;-73
2022/08/19 00:26:06;;;;;;;8.90;7.55;;;;;;;;;;5017376;28;20348;-72
2022/08/19 00:28:32;;;;;;;11.20;8.55;;;;;;;;;;5017964;28;20445;-72
2022/08/19 00:30:58;;;;;;;7.47;6.80;;;;;;;;;;5015813;28;20064;-72
2022/08/19 00:33:23;;;;;;;6.85;6.25;;;;;;;;;;5013919;28;20064;-74
2022/08/19 00:35:48;;;;;;;12.38;6.82;;;;;;;;;;5014702;28;20695;-73
2022/08/19 00:38:14;;;;;;;6.78;6.18;;;;;;;;;;5014587;28;20112;-72
2022/08/19 00:40:39;;;;;;;6.82;6.22;;;;;;;;;;5017260;28;20068;-72
2022/08/19 00:43:09;;;;;;;7.13;6.50;;;;;;;;;;5018832;28;20866;-72
2022/08/19 00:45:35;;;;;;;7.55;6.93;;;;;;;;;;5021768;28;20036;-73
2022/08/19 00:48:04;;;;;;;8.07;6.80;;;;;;;;;;5011811;28;20049;-72
2022/08/19 00:50:29;;;;;;;6.10;5.50;;;;;;;;;;5018795;28;20029;-72
2022/08/19 00:52:55;;;;;;;6.57;6.03;;;;;;;;;;5015405;28;20021;-74
2022/08/19 00:55:23;;;;;;;6.35;5.78;;;;;;;;;;5011133;28;20029;-73
2022/08/19 00:57:54;;;;;;;6.55;6.05;;;;;;;;;;5011868;28;20072;-74
2022/08/19 01:00:22;;;;;;;6.40;5.75;;;;;;;;;;5018774;28;20994;-74
2022/08/19 01:02:47;;;;;;;6.80;6.20;;;;;;;;;;5010001;28;20029;-73
2022/08/19 01:05:15;;;;;;;7.05;6.38;;;;;;;;;;5009110;28;20103;-71
2022/08/19 01:07:40;;;;;;;7.07;6.20;;;;;;;;;;5009806;28;20024;-71
2022/08/19 01:10:08;;;;;;;6.57;5.93;;;;;;;;;;5007807;28;20048;-72
2022/08/19 01:12:34;;;;;;;7.72;6.50;;;;;;;;;;5011806;28;20478;-71
2022/08/19 01:14:59;;;;;;;6.82;6.25;;;;;;;;;;5011611;28;20120;-71
2022/08/19 01:17:25;;;;;;;6.13;5.63;;;;;;;;;;5008274;28;20045;-71
2022/08/19 01:19:50;;;;;;;6.65;5.95;;;;;;;;;;5007086;28;20026;-71
2022/08/19 01:22:31;;;;;;;6.07;5.45;;;;;;;;;;5008087;28;20052;-73
2022/08/19 01:24:57;;;;;;;6.65;6.05;;;;;;;;;;5009765;28;20491;-71
2022/08/19 01:27:22;;;;;;;6.63;5.90;;;;;;;;;;5012246;28;20041;-71
2022/08/19 01:29:48;;;;;;;7.15;6.55;;;;;;;;;;5017719;28;20045;-71
2022/08/19 01:32:15;;;;;;;6.70;6.05;;;;;;;;;;5013167;28;20445;-71
2022/08/19 01:34:40;;;;;;;6.60;6.05;;;;;;;;;;5020808;28;20037;-72
2022/08/19 01:37:10;;;;;;;7.38;6.68;;;;;;;;;;5022784;28;20028;-71
2022/08/19 01:39:36;;;;;;;7.82;6.95;;;;;;;;;;5021418;28;20030;-73
2022/08/19 01:42:02;;;;;;;7.53;6.82;;;;;;;;;;5021752;28;20120;-72
2022/08/19 01:44:28;;;;;;;7.25;6.65;;;;;;;;;;5020361;28;20028;-72
2022/08/19 01:46:54;;;;;;;7.50;6.75;;;;;;;;;;5022051;28;20100;-72
2022/08/19 01:49:21;;;;;;;7.13;6.32;;;;;;;;;;5022906;28;20056;-71
2022/08/19 01:51:47;;;;;;;7.82;6.82;;;;;;;;;;5017664;28;20083;-72
2022/08/19 01:54:14;;;;;;;7.03;6.47;;;;;;;;;;5009775;28;20432;-72
2022/08/19 01:56:40;;;;;;;7.50;6.88;;;;;;;;;;5012041;28;20465;-74
2022/08/19 01:59:09;;;;;;;7.78;6.30;;;;;;;;;;5009779;28;20039;-71
2022/08/19 02:01:34;;;;;;;7.53;6.75;;;;;;;;;;5013074;28;20029;-71
2022/08/19 02:04:03;;;;;;;7.85;7.13;;;;;;;;;;5009625;28;20034;-72
2022/08/19 02:06:28;;;;;;;10.10;7.25;;;;;;;;;;4995589;28;20021;-72
2022/08/19 02:08:54;;;;;;;7.43;6.82;;;;;;;;;;5012052;28;20018;-74
2022/08/19 02:11:26;;;;;;;9.07;6.90;;;;;;;;;;5010139;28;20025;-71
2022/08/19 02:13:52;;;;;;;7.47;6.47;;;;;;;;;;5011887;28;20116;-71
2022/08/19 02:16:18;;;;;;;7.43;6.82;;;;;;;;;;5013426;28;20171;-73
2022/08/19 02:18:43;;;;;;;7.60;6.88;;;;;;;;;;5011395;28;20103;-74
2022/08/19 02:21:09;;;;;;;7.68;6.80;;;;;;;;;;5015195;28;20562;-71
2022/08/19 02:23:34;;;;;;;7.20;6.60;;;;;;;;;;5022342;28;20033;-73
2022/08/19 02:25:59;;;;;;;7.55;6.95;;;;;;;;;;5021503;28;20076;-72
2022/08/19 02:28:25;;;;;;;7.88;7.00;;;;;;;;;;5021608;28;20029;-71
2022/08/19 02:30:50;;;;;;;7.70;7.10;;;;;;;;;;5022465;28;20172;-72
2022/08/19 02:33:16;;;;;;;7.35;6.65;;;;;;;;;;5024222;28;20127;-71
2022/08/19 02:35:42;;;;;;;7.85;7.05;;;;;;;;;;5022426;28;20103;-74
2022/08/19 02:38:26;;;;;;;7.50;6.38;;;;;;;;;;5023003;28;20416;-71
2022/08/19 02:40:53;;;;;;;7.10;6.25;;;;;;;;;;5020348;28;20029;-73
2022/08/19 02:43:22;;;;;;;8.07;7.28;;;;;;;;;;5015286;28;20033;-73
2022/08/19 02:45:48;;;;;;;7.82;7.15;;;;;;;;;;5021074;28;20033;-71
2022/08/19 02:48:17;;;;;;;7.60;6.90;;;;;;;;;;5022509;28;20022;-72
2022/08/19 02:50:42;;;;;;;8.32;7.50;;;;;;;;;;5020755;28;20022;-72
2022/08/19 02:53:08;;;;;;;8.52;7.68;;;;;;;;;;5020289;28;20101;-72
2022/08/19 02:55:33;;;;;;;7.18;6.47;;;;;;;;;;5019385;28;20036;-72
2022/08/19 02:57:59;;;;;;;7.60;6.80;;;;;;;;;;5021776;28;20044;-75
2022/08/19 03:00:25;;;;;;;7.88;7.10;;;;;;;;;;5020419;28;20036;-74
2022/08/19 03:02:51;;;;;;;8.88;7.18;;;;;;;;;;5020615;28;20036;-72
2022/08/19 03:05:16;;;;;;;7.88;7.22;;;;;;;;;;5022138;28;20033;-73
2022/08/19 03:07:41;;;;;;;11.75;8.13;;;;;;;;;;5021046;28;20021;-71
2022/08/19 03:10:07;;;;;;;9.27;8.48;;;;;;;;;;5020830;28;20037;-71
2022/08/19 03:12:34;;;;;;;8.50;7.72;;;;;;;;;;5020148;28;20091;-72
2022/08/19 03:15:00;;;;;;;8.68;7.78;;;;;;;;;;5019904;28;20436;-72
2022/08/19 03:17:25;;;;;;;8.23;6.82;;;;;;;;;;5016171;28;20040;-72
2022/08/19 03:19:51;;;;;;;10.55;7.53;;;;;;;;;;5016605;28;20444;-72
2022/08/19 03:22:16;;;;;;;8.10;7.43;;;;;;;;;;5020382;28;20087;-72
2022/08/19 03:24:43;;;;;;;8.40;7.53;;;;;;;;;;5020931;28;20048;-72
2022/08/19 03:27:08;;;;;;;7.63;6.97;;;;;;;;;;5021998;28;20025;-71
2022/08/19 03:29:37;;;;;;;8.05;7.28;;;;;;;;;;5019236;28;20032;-71
2022/08/19 03:32:04;;;;;;;9.32;8.50;;;;;;;;;;5019514;28;20403;-72
2022/08/19 03:34:31;;;;;;;8.07;7.30;;;;;;;;;;5018974;28;20091;-72
2022/08/19 03:36:58;;;;;;;7.55;6.85;;;;;;;;;;5021236;28;20044;-73
2022/08/19 03:39:24;;;;;;;7.95;7.28;;;;;;;;;;5018334;28;20099;-72
2022/08/19 03:41:50;;;;;;;8.48;7.40;;;;;;;;;;5020967;28;20049;-74
2022/08/19 03:44:17;;;;;;;8.60;7.53;;;;;;;;;;5020375;28;20036;-72
2022/08/19 03:46:43;;;;;;;8.73;7.70;;;;;;;;;;5019803;28;20104;-72
2022/08/19 03:49:08;;;;;;;11.55;7.43;;;;;;;;;;5019942;28;20129;-72
2022/08/19 03:51:35;;;;;;;8.10;7.40;;;;;;;;;;5019304;28;20029;-73
2022/08/19 03:54:02;;;;;;;9.43;8.52;;;;;;;;;;5021007;28;20131;-73
2022/08/19 03:56:28;;;;;;;8.20;7.35;;;;;;;;;;5014830;28;20048;-72
2022/08/19 03:58:54;;;;;;;9.25;7.70;;;;;;;;;;5015165;28;20305;-72
2022/08/19 04:01:21;;;;;;;8.27;7.47;;;;;;;;;;5020244;28;20041;-72
2022/08/19 04:03:46;;;;;;;8.85;7.97;;;;;;;;;;5020517;28;20087;-71
2022/08/19 04:06:25;;;;;;;7.97;7.28;;;;;;;;;;5019222;28;20026;-72
2022/08/19 04:08:53;;;;;;;8.05;7.35;;;;;;;;;;5020179;28;20022;-71
2022/08/19 04:11:23;;;;;;;8.32;7.32;;;;;;;;;;5019225;28;20091;-71
2022/08/19 04:13:50;;;;;;;8.25;7.55;;;;;;;;;;5014607;28;20021;-72
2022/08/19 04:16:16;;;;;;;9.15;8.00;;;;;;;;;;5015634;28;20033;-72
2022/08/19 04:18:42;;;;;;;8.15;6.70;;;;;;;;;;5018647;28;20033;-72
2022/08/19 04:21:07;;;;;;;7.72;6.93;;;;;;;;;;5017827;28;20025;-73
2022/08/19 04:23:33;;;;;;;8.43;7.70;;;;;;;;;;5019021;28;20364;-73
2022/08/19 04:25:59;;;;;;;8.02;7.30;;;;;;;;;;5018849;28;20349;-73
2022/08/19 04:28:25;;;;;;;8.90;8.10;;;;;;;;;;5020029;28;20029;-72
2022/08/19 04:30:52;;;;;;;10.15;8.00;;;;;;;;;;5019008;28;20037;-72
2022/08/19 04:33:19;;;;;;;8.15;7.35;;;;;;;;;;5020286;28;20571;-72
2022/08/19 04:35:46;;;;;;;8.45;7.57;;;;;;;;;;5012568;28;20106;-72
2022/08/19 04:38:12;;;;;;;7.40;6.70;;;;;;;;;;4989574;28;20565;-72
2022/08/19 04:43:25;;;;;;;8.60;7.78;;;;;;;;;;5007232;28;20111;-72
2022/08/19 04:45:51;;;;;;;8.02;7.30;;;;;;;;;;5008053;28;20352;-71
2022/08/19 04:48:23;;;;;;;8.75;7.82;;;;;;;;;;5005479;28;20032;-73
2022/08/19 04:50:48;;;;;;;9.32;8.35;;;;;;;;;;5006667;28;20021;-72
2022/08/19 04:53:13;;;;;;;8.95;8.13;;;;;;;;;;5007062;28;20048;-75
2022/08/19 04:55:40;;;;;;;11.32;8.55;;;;;;;;;;5008962;28;20021;-74
2022/08/19 04:58:06;;;;;;;8.70;7.82;;;;;;;;;;5015727;28;20030;-75
2022/08/19 05:00:31;;;;;;;8.38;7.68;;;;;;;;;;5014284;28;20040;-75
2022/08/19 05:02:56;;;;;;;9.45;8.32;;;;;;;;;;5017503;28;20057;-76
2022/08/19 05:05:22;;;;;;;14.65;7.93;;;;;;;;;;5019427;28;20029;-73
2022/08/19 05:07:49;;;;;;;8.77;7.90;;;;;;;;;;5019822;28;20029;-73
2022/08/19 05:10:14;;;;;;;8.80;7.90;;;;;;;;;;5015420;28;20021;-76
2022/08/19 05:12:39;;;;;;;8.50;7.55;;;;;;;;;;5015571;28;20107;-75
2022/08/19 05:15:05;;;;;;;8.77;8.07;;;;;;;;;;5019671;28;20026;-76
2022/08/19 05:17:31;;;;;;;8.88;8.18;;;;;;;;;;5009900;28;20035;-73
2022/08/19 05:22:42;;;;;;;9.27;8.48;;;;;;;;;;5019410;28;20171;-74
2022/08/19 05:25:08;;;;;;;8.60;7.90;;;;;;;;;;5020378;28;20033;-74
2022/08/19 05:27:34;;;;;;;9.25;8.35;;;;;;;;;;5019503;28;20025;-76
2022/08/19 05:29:59;;;;;;;8.20;7.50;;;;;;;;;;5021431;28;20026;-72
2022/08/19 05:32:25;;;;;;;8.10;7.25;;;;;;;;;;5021217;28;20025;-74
2022/08/19 05:34:50;;;;;;;8.25;7.25;;;;;;;;;;5020257;28;20037;-73
2022/08/19 05:37:16;;;;;;;8.52;7.65;;;;;;;;;;5019449;28;20057;-74
2022/08/19 05:39:42;;;;;;;7.38;6.68;;;;;;;;;;5019864;28;20029;-73
2022/08/19 05:42:09;;;;;;;8.50;6.65;;;;;;;;;;5020625;28;20431;-73
2022/08/19 05:44:37;;;;;;;7.13;6.43;;;;;;;;;;5015781;28;20037;-74
2022/08/19 05:47:04;;;;;;;7.53;6.80;;;;;;;;;;5007761;28;20037;-74
2022/08/19 05:49:30;;;;;;;7.28;6.57;;;;;;;;;;5008041;28;20352;-75
2022/08/19 05:51:55;;;;;;;7.80;7.20;;;;;;;;;;5009769;28;20026;-76
2022/08/19 05:54:22;;;;;;;7.20;6.57;;;;;;;;;;5008354;28;20665;-76
2022/08/19 05:56:48;;;;;;;7.20;6.47;;;;;;;;;;5007857;28;20029;-74
2022/08/19 05:59:14;;;;;;;7.65;6.97;;;;;;;;;;5008462;28;20033;-76
2022/08/19 06:01:40;;;;;;;7.15;6.55;;;;;;;;;;5007146;28;20026;-74
2022/08/19 06:04:06;;;;;;;7.43;6.63;;;;;;;;;;5008749;28;20452;-75
2022/08/19 06:06:33;;;;;;;7.38;6.68;;;;;;;;;;4991047;28;20059;-74
2022/08/19 06:08:59;;;;;;;6.85;6.22;;;;;;;;;;5009618;28;20076;-75
2022/08/19 06:11:33;;;;;;;7.97;5.82;;;;;;;;;;5008739;28;20049;-75
2022/08/19 06:14:01;;;;;;;7.00;6.35;;;;;;;;;;5007709;28;20021;-75
2022/08/19 06:16:27;;;;;;;7.80;6.07;;;;;;;;;;5007855;28;20060;-75
2022/08/19 06:18:53;;;;;;;7.55;5.63;;;;;;;;;;5011112;28;20091;-76
2022/08/19 06:21:19;;;;;;;7.53;6.43;;;;;;;;;;5016978;28;20453;-74
2022/08/19 06:23:47;;;;;;;7.25;6.53;;;;;;;;;;5014904;28;20021;-75
2022/08/19 06:26:12;;;;;;;6.40;5.85;;;;;;;;;;5023877;28;20036;-73
2022/08/19 06:28:42;;;;;;;8.70;6.03;;;;;;;;;;5020226;28;20029;-73
2022/08/19 06:31:08;;;;;;;11.27;5.53;;;;;;;;;;5016756;28;20021;-75
2022/08/19 06:33:33;;;;;;;10.27;5.32;;;;;;;;;;5024460;28;20024;-77
2022/08/19 06:35:59;;;;;;;6.70;5.88;;;;;;;;;;5022604;28;20099;-77
2022/08/19 06:38:24;;;;;;;8.63;6.03;;;;;;;;;;5013565;28;20112;-77
2022/08/19 06:40:49;;;;;;;7.55;6.10;;;;;;;;;;5019607;28;20121;-76
2022/08/19 06:43:15;;;;;;;6.10;5.50;;;;;;;;;;5015892;28;20356;-73
2022/08/19 06:45:42;;;;;;;6.25;5.28;;;;;;;;;;5012968;28;20029;-72
2022/08/19 06:48:07;;;;;;;5.57;4.90;;;;;;;;;;5013708;28;20377;-74
2022/08/19 06:50:32;;;;;;;5.85;5.25;;;;;;;;;;5010579;28;20067;-76
2022/08/19 06:52:58;;;;;;;7.13;5.70;;;;;;;;;;5010792;28;20018;-77
2022/08/19 06:55:23;;;;;;;6.03;5.43;;;;;;;;;;5017595;28;20025;-71
2022/08/19 06:57:52;;;;;;;8.27;6.13;;;;;;;;;;5020784;28;20064;-73
2022/08/19 07:00:18;;;;;;;;;;;;;;;;;;5016835;28;20033;-76
2022/08/19 07:02:43;;;;;;;8.23;5.77;;;;;;;;;;5010876;28;19913;-72
2022/08/19 07:05:09;;;;;;;6.47;5.88;;;;;;;;;;5009140;28;20392;-72
2022/08/19 07:07:34;;;;;;;6.47;5.88;;;;;;;;;;5009958;28;20017;-73
2022/08/19 07:10:00;;;;;;;9.20;6.30;;;;;;;;;;5011744;28;20453;-71
2022/08/19 07:12:26;;;;;;;6.55;5.82;;;;;;;;;;5010611;28;20022;-76
2022/08/19 07:14:52;;;;;;;7.75;5.95;;;;;;;;;;5010258;28;20057;-72
2022/08/19 07:17:19;;;;;;;6.15;5.25;;;;;;;;;;5010620;28;20061;-71
2022/08/19 07:19:45;;;;;;;5.30;4.78;;;;;;;;;;5010131;28;20345;-71
2022/08/19 07:22:10;;;;;;;6.93;6.20;;;;;;;;;;5011599;28;20032;-72
2022/08/19 07:24:37;;;;;;;10.23;6.75;;;;;;;;;;5010808;28;20038;-72
2022/08/19 07:27:04;;;;;;;6.18;5.57;;;;;;;;;;5010954;28;20041;-70
2022/08/19 07:29:30;;;;;;;6.07;5.40;;;;;;;;;;5010425;28;20033;-71
2022/08/19 07:31:56;;;;;;;8.85;6.07;;;;;;;;;;5007907;28;20034;-71
2022/08/19 07:34:22;;;;;;;5.97;5.47;;;;;;;;;;5010519;28;20447;-71
2022/08/19 07:36:49;;;;;;;5.68;5.18;;;;;;;;;;5009517;28;20026;-72
2022/08/19 07:39:16;;;;;;;4.97;4.57;;;;;;;;;;5008618;28;20079;-74
2022/08/19 07:41:42;;;;;;;6.10;5.20;;;;;;;;;;5010011;28;20064;-71
2022/08/19 07:44:08;;;;;;;6.13;5.20;;;;;;;;;;5009872;28;20369;-72
2022/08/19 07:46:35;;;;;;;5.25;4.53;;;;;;;;;;5008341;28;20029;-72
2022/08/19 07:49:01;;;;;;;5.72;4.88;;;;;;;;;;5007426;28;20029;-74
2022/08/19 07:51:27;;;;;;;4.80;4.40;;;;;;;;;;5009287;28;20377;-75
2022/08/19 07:53:52;;;;;;;5.93;5.32;;;;;;;;;;5010145;28;20033;-74
2022/08/19 07:56:19;;;;;;;6.10;4.40;;;;;;;;;;5008704;28;20029;-74
2022/08/19 07:58:45;;;;;;;5.20;4.70;;;;;;;;;;5009268;28;20520;-72
2022/08/19 08:01:12;;;;;;;6.00;5.05;;;;;;;;;;5009828;28;20033;-71
2022/08/19 08:09:15;;;;;;;4.72;4.28;;;;;;;;;;5021489;28;20078;-74
2022/08/19 08:11:48;;;;;;;6.63;4.70;;;;;;;;;;5021640;28;20127;-75
2022/08/19 08:14:15;;;;;;;5.47;4.70;;;;;;;;;;5023115;28;20108;-75
2022/08/19 08:16:41;;;;;;;6.43;4.43;;;;;;;;;;5013937;28;20025;-77
2022/08/19 08:19:07;;;;;;;4.65;4.25;;;;;;;;;;5010497;28;20033;-77
2022/08/19 08:21:33;;;;;;;5.53;3.90;;;;;;;;;;5021951;28;20070;-75
2022/08/19 08:23:58;;;;;;;5.32;4.47;;;;;;;;;;5020440;28;20112;-74
2022/08/19 08:26:24;;;;;;;4.65;4.25;;;;;;;;;;5022740;28;20116;-76
2022/08/19 08:28:50;;;;;;;4.65;3.67;;;;;;;;;;5019611;28;20074;-75
2022/08/19 08:31:15;;;;;;;4.10;3.70;;;;;;;;;;5014851;28;20029;-77
2022/08/19 08:33:42;;;;;;;4.13;3.78;;;;;;;;;;5014460;28;20076;-75
2022/08/19 08:36:08;;;;;;;3.63;3.33;;;;;;;;;;5021220;28;20128;-77
2022/08/19 08:38:34;;;;;;;5.00;3.90;;;;;;;;;;5020756;28;20029;-78
2022/08/19 08:41:05;;;;;;;5.18;3.90;;;;;;;;;;5017389;28;20423;-77
2022/08/19 08:43:41;;;;;;;6.85;3.70;;;;;;;;;;5008631;28;20029;-75
2022/08/19 08:46:09;;;;;;;3.90;3.60;;;;;;;;;;5007974;28;20029;-77
2022/08/19 08:48:46;;;;;;;6.15;3.60;;;;;;;;;;5003839;28;20105;-75
2022/08/19 08:51:31;;;;;;;3.83;3.20;;;;;;;;;;5010789;28;20480;-76
2022/08/19 08:53:57;;;;;;;3.67;3.38;;;;;;;;;;5008715;28;20448;-75
2022/08/19 08:56:22;;;;;;;4.47;3.50;;;;;;;;;;5009491;28;20025;-73
2022/08/19 08:58:57;;;;;;;3.70;3.30;;;;;;;;;;5009258;28;20067;-75
2022/08/19 09:01:22;;;;;;;7.28;4.47;;;;;;;;;;5008783;28;20029;-76
2022/08/19 09:03:48;;;;;;;3.80;3.35;;;;;;;;;;5008857;28;20021;-77
2022/08/19 09:06:14;;;;;;;4.70;3.33;;;;;;;;;;5009052;28;20034;-75
2022/08/19 09:08:44;;;;;;;3.47;3.22;;;;;;;;;;5009034;28;20445;-75
2022/08/19 09:11:12;;;;;;;3.97;3.22;;;;;;;;;;5006731;28;20040;-75
2022/08/19 09:13:55;;;;;;;5.00;3.40;;;;;;;;;;5008389;28;20103;-76
2022/08/19 09:16:21;;;;;;;6.40;3.70;;;;;;;;;;5005702;28;20037;-73
2022/08/19 09:18:54;;;;;;;5.65;3.30;;;;;;;;;;5015153;28;20025;-76
2022/08/19 09:21:22;;;;;;;3.33;2.78;;;;;;;;;;5009434;28;20025;-75
2022/08/19 09:23:48;;;;;;;4.18;3.80;;;;;;;;;;5007165;28;20028;-76
2022/08/19 09:26:15;;;;;;;4.63;3.15;;;;;;;;;;5007983;28;20029;-76
2022/08/19 09:28:43;;;;;;;4.18;3.40;;;;;;;;;;5007151;28;20045;-74
2022/08/19 09:31:09;;;;;;;6.20;2.50;;;;;;;;;;5009044;28;20021;-75
2022/08/19 09:33:34;;;;;;;6.55;3.47;;;;;;;;;;5007848;28;20057;-75
2022/08/19 09:36:07;;;;;;;4.53;3.20;;;;;;;;;;5005638;28;20156;-76
2022/08/19 09:38:33;;;;;;;4.65;3.25;;;;;;;;;;5006645;28;20091;-76
2022/08/19 09:41:04;;;;;;;2.90;2.42;;;;;;;;;;5008299;28;20033;-75
2022/08/19 09:43:29;;;;;;;3.38;3.03;;;;;;;;;;5008041;28;20074;-77
2022/08/19 09:45:54;;;;;;;4.95;3.35;;;;;;;;;;5014155;28;20037;-76
2022/08/19 09:48:20;;;;;;;3.55;3.22;;;;;;;;;;5005178;28;20112;-76
2022/08/19 09:50:46;;;;;;;5.82;3.08;;;;;;;;;;5009159;28;20049;-75
2022/08/19 09:53:11;;;;;;;4.97;3.38;;;;;;;;;;5019115;28;20032;-77
2022/08/19 09:55:41;;;;;;;5.50;3.85;;;;;;;;;;5014269;28;20033;-75
2022/08/19 09:58:06;;;;;;;3.63;2.90;;;;;;;;;;5023984;28;20030;-77
2022/08/19 10:00:32;;;;;;;3.70;2.90;;;;;;;;;;5018256;28;20037;-73
2022/08/19 10:02:57;;;;;;;2.85;2.65;;;;;;;;;;5011969;28;20026;-76
2022/08/19 10:08:07;;;;;;;3.00;2.70;;;;;;;;;;5012160;28;20036;-76
2022/08/19 10:10:34;;;;;;;3.22;2.75;;;;;;;;;;5012745;28;20025;-76
2022/08/19 10:13:00;;;;;;;3.35;2.90;;;;;;;;;;5007343;28;20017;-77
2022/08/19 10:15:25;;;;;;;3.78;3.28;;;;;;;;;;5015327;28;20095;-77
2022/08/19 10:17:50;;;;;;;4.28;3.40;;;;;;;;;;5010181;28;20101;-77
2022/08/19 10:20:16;;;;;;;3.30;2.63;;;;;;;;;;5010028;28;20040;-77
2022/08/19 10:22:43;;;;;;;3.33;3.03;;;;;;;;;;5011073;28;20490;-77
2022/08/19 10:25:08;;;;;;;3.08;2.85;;;;;;;;;;5013096;28;20041;-78
2022/08/19 10:27:33;;;;;;;7.55;3.00;;;;;;;;;;5022843;28;20456;-77
2022/08/19 10:29:59;;;;;;;4.45;3.10;;;;;;;;;;5012533;28;20033;-79
2022/08/19 10:32:25;;;;;;;4.25;3.45;;;;;;;;;;5015348;28;20025;-78
2022/08/19 10:34:52;;;;;;;3.63;3.13;;;;;;;;;;5011227;28;20037;-76
2022/08/19 10:37:17;;;;;;;5.70;3.05;;;;;;;;;;5011606;28;20025;-76
2022/08/19 10:39:45;;;;;;;3.63;2.45;;;;;;;;;;5010986;28;20033;-75
2022/08/19 10:42:11;;;;;;;5.50;3.80;;;;;;;;;;5011004;28;20063;-75
2022/08/19 10:44:36;;;;;;;6.43;5.00;;;;;;;;;;5016570;28;21228;-78
2022/08/19 10:47:03;;;;;;;4.88;3.55;;;;;;;;;;5015787;28;20033;-75
2022/08/19 10:49:28;;;;;;;4.45;2.53;;;;;;;;;;5008708;28;20029;-76
2022/08/19 10:57:27;;;;;;;2.85;2.53;;;;;;;;;;5021424;28;20036;-75
2022/08/19 10:59:52;;;;;;;4.50;2.83;;;;;;;;;;5022849;28;20071;-75
2022/08/19 11:02:17;;;;;;;3.45;2.80;;;;;;;;;;5023051;28;20429;-75
2022/08/19 11:04:43;;;;;;;3.15;2.55;;;;;;;;;;5013982;28;20029;-76
2022/08/19 11:07:08;;;;;;;3.22;2.92;;;;;;;;;;5016049;28;20133;-75
2022/08/19 11:09:39;;;;;;;3.95;2.58;;;;;;;;;;5014730;28;20064;-76
2022/08/19 11:12:05;;;;;;;4.35;2.83;;;;;;;;;;5011560;28;20049;-74
2022/08/19 11:14:32;;;;;;;4.68;3.20;;;;;;;;;;5012147;28;20420;-76
2022/08/19 11:16:58;;;;;;;3.30;2.38;;;;;;;;;;5012484;28;20045;-77
2022/08/19 11:19:23;;;;;;;4.20;3.05;;;;;;;;;;5011348;28;20033;-75
2022/08/19 11:21:50;;;;;;;3.10;2.75;;;;;;;;;;5011513;28;20039;-76
2022/08/19 11:24:18;;;;;;;4.65;2.70;;;;;;;;;;5020337;28;20462;-74
2022/08/19 11:26:44;;;;;;;2.55;2.30;;;;;;;;;;5021294;28;20025;-75
2022/08/19 11:29:13;;;;;;;5.80;2.97;;;;;;;;;;5023304;28;20107;-76
2022/08/19 11:31:40;;;;;;;3.85;2.55;;;;;;;;;;5022940;28;20044;-76
2022/08/19 11:34:06;;;;;;;4.30;2.70;;;;;;;;;;5020622;28;20025;-76
2022/08/19 11:36:32;;;;;;;3.63;2.63;;;;;;;;;;5021718;28;20025;-77
2022/08/19 11:38:58;;;;;;;3.10;2.78;;;;;;;;;;5023590;28;20452;-77
2022/08/19 11:41:24;;;;;;;3.85;2.78;;;;;;;;;;5022777;28;20055;-76
2022/08/19 11:43:52;;;;;;;5.57;2.97;;;;;;;;;;5016034;28;20079;-76
2022/08/19 11:46:18;;;;;;;5.90;2.42;;;;;;;;;;5011431;28;20025;-76
2022/08/19 11:48:43;;;;;;;2.97;2.67;;;;;;;;;;5019533;28;20025;-72
2022/08/19 11:51:15;;;;;;;51.25;30.77;;;;;;;;;;5011456;28;20029;-74
2022/08/19 11:53:40;;;;;;;50.60;29.50;;;;;;;;;;5017527;28;20032;-74
2022/08/19 11:56:06;;;;;;;37.00;22.05;;;;;;;;;;5013102;28;20033;-73
2022/08/19 11:58:32;;;;;;;25.08;14.18;;;;;;;;;;5018776;28;20095;-73
2022/08/19 12:00:57;;;;;;;5.65;4.20;;;;;;;;;;5020325;28;20029;-74
2022/08/19 12:03:23;;;;;;;3.28;2.75;;;;;;;;;;5010259;28;20024;-74
2022/08/19 12:05:49;;;;;;;9.88;2.80;;;;;;;;;;5014503;28;20405;-75
2022/08/19 12:08:15;;;;;;;4.38;3.10;;;;;;;;;;5011088;28;20025;-73
2022/08/19 12:10:42;;;;;;;9.68;6.70;;;;;;;;;;5008552;28;20044;-77
2022/08/19 12:13:07;;;;;;;13.70;11.38;;;;;;;;;;5009703;28;20445;-75
2022/08/19 12:15:37;;;;;;;5.75;4.43;;;;;;;;;;5006291;28;20036;-77
2022/08/19 12:18:03;;;;;;;3.58;2.75;;;;;;;;;;5012608;28;20042;-75
2022/08/19 12:20:28;;;;;;;8.07;5.80;;;;;;;;;;5009396;28;20040;-74
2022/08/19 12:22:54;;;;;;;7.93;5.60;;;;;;;;;;5009467;28;20048;-75
2022/08/19 12:25:20;;;;;;;6.68;4.90;;;;;;;;;;4997914;28;20033;-78
2022/08/19 12:27:46;;;;;;;5.07;3.60;;;;;;;;;;5020617;28;20028;-77
2022/08/19 12:30:12;;;;;;;4.13;3.22;;;;;;;;;;5011808;28;20388;-77
2022/08/19 12:32:37;;;;;;;18.88;13.48;;;;;;;;;;5016672;28;20029;-77
2022/08/19 12:35:03;;;;;;;96.30;76.80;;;;;;;;;;5022679;28;20055;-77
2022/08/19 12:37:29;;;;;;;62.45;51.95;;;;;;;;;;5021862;28;21096;-76
2022/08/19 12:39:55;;;;;;;74.07;62.72;;;;;;;;;;5020678;28;20032;-76
2022/08/19 12:42:21;;;;;;;18.83;15.95;;;;;;;;;;5022016;28;20053;-76
2022/08/19 12:44:47;;;;;;;7.00;6.05;;;;;;;;;;5022250;28;20042;-78
2022/08/19 12:47:13;;;;;;;7.00;4.95;;;;;;;;;;5021842;28;20032;-78
2022/08/19 12:49:39;;;;;;;5.13;4.22;;;;;;;;;;5017519;28;20152;-79
2022/08/19 12:52:05;;;;;;;5.53;3.75;;;;;;;;;;5012897;28;20116;-79
2022/08/19 12:54:31;;;;;;;5.22;3.22;;;;;;;;;;5009043;28;20017;-77
2022/08/19 12:56:56;;;;;;;5.97;3.15;;;;;;;;;;5009512;28;20025;-77
2022/08/19 12:59:22;;;;;;;5.30;4.25;;;;;;;;;;5012051;28;20037;-76
2022/08/19 13:01:47;;;;;;;5.63;3.47;;;;;;;;;;5011558;28;20029;-78
2022/08/19 13:04:12;;;;;;;5.40;2.92;;;;;;;;;;5022190;28;20036;-76
2022/08/19 13:06:38;;;;;;;47.15;38.22;;;;;;;;;;5012189;28;20453;-78
2022/08/19 13:09:04;;;;;;;82.70;68.30;;;;;;;;;;5008888;28;20025;-76
2022/08/19 13:11:33;;;;;;;50.75;43.00;;;;;;;;;;5015224;28;20025;-76
2022/08/19 13:13:59;;;;;;;10.75;8.18;;;;;;;;;;5019702;28;20164;-76
2022/08/19 13:16:24;;;;;;;16.60;13.00;;;;;;;;;;5011400;28;20112;-78
2022/08/19 13:18:53;;;;;;;22.73;20.38;;;;;;;;;;5008124;28;20532;-78
2022/08/19 13:21:19;;;;;;;9.10;6.43;;;;;;;;;;5008269;28;20017;-78
2022/08/19 13:23:45;;;;;;;9.85;7.97;;;;;;;;;;5017840;28;20120;-78
2022/08/19 13:26:11;;;;;;;18.63;16.42;;;;;;;;;;5021002;28;20137;-77
2022/08/19 13:34:06;;;;;;;8.65;5.90;;;;;;;;;;5015667;28;20064;-76
2022/08/19 13:36:35;;;;;;;8.88;6.88;;;;;;;;;;5013228;28;20057;-77
2022/08/19 13:39:00;;;;;;;6.10;4.10;;;;;;;;;;5012426;28;20101;-77
2022/08/19 13:41:26;;;;;;;6.80;4.15;;;;;;;;;;5012613;28;20136;-76
2022/08/19 13:43:52;;;;;;;5.50;4.00;;;;;;;;;;5012747;28;20079;-77
2022/08/19 13:46:19;;;;;;;7.60;4.22;;;;;;;;;;5012101;28;20087;-76
2022/08/19 13:48:44;;;;;;;5.10;3.53;;;;;;;;;;5015720;28;20022;-77
2022/08/19 13:51:10;;;;;;;7.43;5.55;;;;;;;;;;5011476;28;20353;-78
2022/08/19 13:53:39;;;;;;;10.95;7.65;;;;;;;;;;5016144;28;20025;-76
2022/08/19 13:56:09;;;;;;;11.23;10.10;;;;;;;;;;5016073;28;20795;-77
2022/08/19 13:58:34;;;;;;;9.43;8.43;;;;;;;;;;5013967;28;20037;-75
2022/08/19 14:01:00;;;;;;;9.35;8.38;;;;;;;;;;5012105;28;20075;-75
2022/08/19 14:03:26;;;;;;;5.28;4.38;;;;;;;;;;5015683;28;20448;-75
2022/08/19 14:05:51;;;;;;;8.38;6.20;;;;;;;;;;5012331;28;20465;-75
2022/08/19 14:08:18;;;;;;;7.68;6.85;;;;;;;;;;5010887;28;20029;-77
2022/08/19 14:10:44;;;;;;;7.00;5.93;;;;;;;;;;5011966;28;20027;-75
2022/08/19 14:13:09;;;;;;;4.63;4.03;;;;;;;;;;5011270;28;20040;-76
2022/08/19 14:15:36;;;;;;;5.80;4.18;;;;;;;;;;5019793;28;20372;-75
2022/08/19 14:18:02;;;;;;;5.43;3.78;;;;;;;;;;5011770;28;20083;-79
2022/08/19 14:20:27;;;;;;;4.60;3.88;;;;;;;;;;5010883;28;20395;-75
2022/08/19 14:22:54;;;;;;;14.30;3.95;;;;;;;;;;5011772;28;20032;-76
2022/08/19 14:25:24;;;;;;;6.35;4.28;;;;;;;;;;5011633;28;20191;-76
2022/08/19 14:27:50;;;;;;;6.40;3.80;;;;;;;;;;5010124;28;20300;-83
2022/08/19 14:30:17;;;;;;;5.30;4.80;;;;;;;;;;4992511;28;20878;-77
2022/08/19 14:32:45;;;;;;;5.10;4.67;;;;;;;;;;5010420;28;20033;-76
2022/08/19 14:35:12;;;;;;;7.13;3.63;;;;;;;;;;5010369;28;20025;-77
2022/08/19 14:37:38;;;;;;;7.70;4.45;;;;;;;;;;5007786;28;20128;-77
2022/08/19 14:40:03;;;;;;;12.00;9.63;;;;;;;;;;5010177;28;20178;-77
2022/08/19 14:42:29;;;;;;;6.80;5.10;;;;;;;;;;5009447;28;20050;-75
2022/08/19 14:44:58;;;;;;;8.43;4.55;;;;;;;;;;5010502;28;20036;-75
2022/08/19 14:47:23;;;;;;;9.30;4.35;;;;;;;;;;5009983;28;20132;-79
2022/08/19 14:49:50;;;;;;;6.25;4.38;;;;;;;;;;5009728;28;20426;-77
2022/08/19 14:52:15;;;;;;;5.80;4.28;;;;;;;;;;5009571;28;20112;-77
2022/08/19 14:54:41;;;;;;;4.88;4.13;;;;;;;;;;5009896;28;20452;-76
2022/08/19 14:57:06;;;;;;;5.95;3.97;;;;;;;;;;5011335;28;20060;-77
2022/08/19 14:59:32;;;;;;;5.50;3.97;;;;;;;;;;5009797;28;20036;-75
2022/08/19 15:01:57;;;;;;;8.07;3.78;;;;;;;;;;5010134;28;20176;-75